Time;durP1;ratioP1;P1;durP2;ratioP2;P2;SDS_P1;SDS_P2;PMS_P1;PMS_P2;Temp;Humidity;BMP_temperature;BMP_pressure;BME280_temperature;BME280_humidity;BME280_pressure;Samples;Min_cycle;Max_cycle;Signal;HPM_P1;HPM_P2
2021/12/25 00:02:01;;;;;;;5.07;3.40;;;-1.00;99.90;-1.60;95570.00;;;;5037363;28;20460;-71
2021/12/25 00:04:49;;;;;;;4.97;3.13;;;-1.00;99.90;-1.50;95586.00;;;;5038045;28;20438;-72
2021/12/25 00:07:39;;;;;;;5.63;2.60;;;-1.00;99.90;-1.90;95578.00;;;;5043022;28;20434;-72
2021/12/25 00:10:30;;;;;;;3.60;2.67;;;-1.10;99.90;-1.90;95589.00;;;;5042135;28;20420;-73
2021/12/25 00:13:20;;;;;;;3.70;2.80;;;-1.20;99.90;-1.70;95575.00;;;;5045644;28;20432;-73
2021/12/25 00:16:10;;;;;;;3.93;3.47;;;-1.20;99.90;-1.70;95582.00;;;;5044621;28;20935;-72
2021/12/25 00:18:59;;;;;;;5.23;3.43;;;-1.20;99.90;-1.70;95577.00;;;;5031271;28;20434;-72
2021/12/25 00:21:47;;;;;;;4.37;3.40;;;-1.20;99.90;-1.90;95584.00;;;;5044512;28;20447;-73
2021/12/25 00:24:42;;;;;;;3.13;2.20;;;-1.20;99.90;-2.10;95594.00;;;;5043740;28;20636;-72
2021/12/25 00:27:42;;;;;;;2.97;2.47;;;-1.30;99.90;-1.90;95587.00;;;;5045185;28;20954;-71
2021/12/25 00:30:38;;;;;;;5.07;2.67;;;-1.30;99.90;-1.70;95596.00;;;;5033080;28;20934;-73
2021/12/25 00:33:36;;;;;;;2.83;2.63;;;-1.30;99.90;-1.60;95592.00;;;;5043983;28;20443;-72
2021/12/25 00:36:26;;;;;;;3.80;1.97;;;-1.20;99.90;-1.70;95591.00;;;;5045235;28;20434;-72
2021/12/25 00:39:15;;;;;;;2.67;2.40;;;-1.10;99.90;-2.10;95580.00;;;;5043731;28;20419;-71
2021/12/25 00:42:06;;;;;;;2.80;2.20;;;-1.20;99.90;-2.00;95584.00;;;;5035395;28;20970;-72
2021/12/25 00:44:55;;;;;;;2.37;2.17;;;-1.20;99.90;-1.80;95567.00;;;;5040253;28;20432;-70
2021/12/25 00:47:45;;;;;;;3.90;2.80;;;-1.20;99.90;-1.80;95575.00;;;;5040620;28;20984;-72
2021/12/25 00:50:34;;;;;;;3.10;2.80;;;-1.20;99.90;-1.90;95570.00;;;;5028621;28;20506;-71
2021/12/25 00:53:23;;;;;;;8.87;2.47;;;-1.20;99.90;-2.00;95576.00;;;;5041059;28;20467;-71
2021/12/25 00:56:13;;;;;;;2.57;2.00;;;-1.30;99.90;-1.80;95573.00;;;;5042432;28;20438;-71
2021/12/25 00:59:02;;;;;;;2.83;2.60;;;-1.30;99.90;-1.80;95576.00;;;;5043501;28;20460;-71
2021/12/25 01:01:51;;;;;;;2.77;2.27;;;-1.30;99.90;-2.10;95581.00;;;;5035562;28;20440;-72
2021/12/25 01:04:41;;;;;;;3.93;1.97;;;-1.30;99.90;-2.10;95583.00;;;;5031355;28;20590;-73
2021/12/25 01:07:30;;;;;;;2.73;2.07;;;-1.30;99.90;-2.00;95607.00;;;;5044261;28;20431;-73
2021/12/25 01:10:20;;;;;;;3.60;2.70;;;-1.40;99.90;-1.80;95600.00;;;;5029269;28;20423;-72
2021/12/25 01:13:13;;;;;;;2.37;2.17;;;-1.30;99.90;-1.70;95603.00;;;;5044474;28;21073;-72
2021/12/25 01:16:20;;;;;;;2.80;2.60;;;-1.30;99.90;-1.70;95581.00;;;;5043341;28;20434;-72
2021/12/25 01:19:41;;;;;;;5.03;2.83;;;-1.30;99.90;-1.60;95584.00;;;;5043750;28;20449;-73
2021/12/25 01:26:01;;;;;;;3.37;3.07;;;-1.30;99.90;-1.90;95585.00;;;;5034769;28;20452;-71
2021/12/25 01:29:17;;;;;;;3.03;2.73;;;-1.30;99.90;-1.90;95587.00;;;;5043669;28;20437;-71
2021/12/25 01:32:34;;;;;;;2.93;2.60;;;-1.30;99.90;-1.90;95581.00;;;;5043088;28;20554;-71
2021/12/25 01:35:55;;;;;;;2.70;1.83;;;-1.40;99.90;-2.10;95602.00;;;;5043221;28;20430;-74
2021/12/25 01:39:00;;;;;;;2.27;1.77;;;-1.40;99.90;-2.20;95593.00;;;;5044519;28;20467;-75
2021/12/25 01:42:06;;;;;;;2.53;2.30;;;-1.30;99.90;-2.10;95596.00;;;;5042817;28;20838;-76
2021/12/25 01:48:05;;;;;;;2.57;1.90;;;-1.40;99.90;-1.80;95584.00;;;;5038625;28;20431;-75
2021/12/25 01:50:54;;;;;;;1.80;1.50;;;-1.30;99.90;-1.70;95586.00;;;;5041997;28;20462;-74
2021/12/25 01:53:44;;;;;;;2.00;1.90;;;-1.20;99.90;-1.30;95593.00;;;;5042439;28;20459;-75
2021/12/25 01:56:33;;;;;;;2.23;1.83;;;-1.00;99.90;-1.10;95587.00;;;;5042687;28;20431;-75
2021/12/25 01:59:23;;;;;;;2.83;2.50;;;-0.90;99.90;-1.10;95593.00;;;;5042026;28;20825;-76
2021/12/25 02:02:12;;;;;;;4.17;3.30;;;-0.80;99.90;-1.30;95590.00;;;;5030130;28;20502;-74
2021/12/25 02:05:01;;;;;;;1.90;1.70;;;-0.20;99.90;-1.70;95580.00;;;;5030423;28;20427;-75
2021/12/25 02:07:50;;;;;;;2.53;1.43;;;-0.80;99.90;-1.80;95570.00;;;;5037929;28;20435;-75
2021/12/25 02:10:40;;;;;;;1.70;1.60;;;-1.00;99.90;-1.80;95572.00;;;;5023760;28;20428;-75
2021/12/25 02:13:29;;;;;;;3.10;2.10;;;-1.00;99.90;-1.70;95577.00;;;;5044895;28;20438;-75
2021/12/25 02:16:22;;;;;;;2.03;1.80;;;-1.10;99.90;-1.60;95580.00;;;;5047033;28;20435;-74
2021/12/25 02:19:21;;;;;;;2.37;2.10;;;-1.10;99.90;-1.40;95580.00;;;;5038785;28;21001;-75
2021/12/25 02:22:12;;;;;;;2.37;1.80;;;-1.00;99.90;-1.20;95577.00;;;;5035007;28;20447;-75
2021/12/25 02:25:00;;;;;;;1.77;1.60;;;-0.90;99.90;-1.20;95582.00;;;;5046230;28;20837;-74
2021/12/25 02:27:49;;;;;;;2.00;1.90;;;-0.90;99.90;-1.30;95584.00;;;;5046790;28;20431;-74
2021/12/25 02:30:38;;;;;;;3.23;2.03;;;-0.90;99.90;-1.40;95582.00;;;;5037717;28;20832;-75
2021/12/25 02:33:28;;;;;;;2.93;2.37;;;-0.90;99.90;-1.40;95579.00;;;;5034217;28;20427;-76
2021/12/25 02:36:18;;;;;;;2.03;1.87;;;-0.90;99.90;-1.30;95580.00;;;;5045648;28;20477;-74
2021/12/25 02:39:08;;;;;;;2.57;2.37;;;-0.90;99.90;-1.30;95585.00;;;;5047563;28;20995;-75
2021/12/25 02:41:57;;;;;;;3.63;1.93;;;-0.90;99.90;-1.20;95591.00;;;;5046770;28;21004;-75
2021/12/25 02:44:46;;;;;;;1.70;1.60;;;-0.90;99.90;-1.30;95589.00;;;;5045451;28;20435;-75
2021/12/25 02:47:36;;;;;;;4.43;2.27;;;-0.80;99.90;-1.60;95589.00;;;;5046802;28;20529;-75
2021/12/25 02:50:28;;;;;;;3.07;2.27;;;-0.90;99.90;-1.40;95590.00;;;;5045651;28;20430;-75
2021/12/25 02:53:17;;;;;;;1.90;1.77;;;-0.90;99.90;-1.00;95579.00;;;;5045203;28;20430;-75
2021/12/25 02:56:09;;;;;;;1.87;1.77;;;-0.80;99.90;-1.20;95595.00;;;;5044979;28;20431;-75
2021/12/25 02:58:58;;;;;;;1.37;0.80;;;-0.70;99.90;-2.10;95592.00;;;;5045281;28;20773;-75
2021/12/25 03:01:47;;;;;;;2.00;1.90;;;-0.90;99.90;-2.10;95588.00;;;;5039964;28;20452;-75
2021/12/25 03:04:37;;;;;;;2.37;2.17;;;-1.00;99.90;-1.70;95582.00;;;;5036329;28;20424;-75
2021/12/25 03:07:26;;;;;;;1.80;1.70;;;-1.10;99.90;-1.60;95581.00;;;;5047504;28;20441;-74
2021/12/25 03:10:17;;;;;;;1.43;1.33;;;-1.10;99.90;-1.60;95587.00;;;;5032128;28;20435;-74
2021/12/25 03:13:31;;;;;;;1.70;1.60;;;-1.00;99.90;-1.40;95583.00;;;;5047973;28;20426;-74
2021/12/25 03:16:20;;;;;;;4.53;2.50;;;-0.90;99.90;-1.10;95589.00;;;;5045938;28;20423;-75
2021/12/25 03:19:17;;;;;;;2.07;1.90;;;-0.80;99.90;-1.00;95591.00;;;;5034421;28;20478;-75
2021/12/25 03:22:06;;;;;;;2.10;2.00;;;-0.70;99.90;-1.10;95589.00;;;;5044865;28;20454;-75
2021/12/25 03:24:55;;;;;;;1.97;1.77;;;-0.70;99.90;-1.40;95590.00;;;;5044220;28;20432;-75
2021/12/25 03:27:48;;;;;;;1.87;1.70;;;-0.70;99.90;-1.40;95600.00;;;;5046107;28;20957;-75
2021/12/25 03:30:39;;;;;;;3.10;2.13;;;-0.70;99.90;-1.60;95603.00;;;;5038098;28;20434;-75
2021/12/25 03:33:29;;;;;;;1.10;1.00;;;-0.80;99.90;-1.30;95608.00;;;;5047018;28;20572;-76
2021/12/25 03:36:19;;;;;;;3.07;2.03;;;-0.80;99.90;-1.10;95606.00;;;;5045179;28;20447;-75
2021/12/25 03:39:08;;;;;;;3.40;2.10;;;-0.70;99.90;-1.00;95599.00;;;;5045355;28;20470;-76
2021/12/25 03:41:58;;;;;;;2.23;2.13;;;-0.70;99.90;-0.90;95605.00;;;;5045707;28;20462;-75
2021/12/25 03:44:47;;;;;;;2.97;2.40;;;-0.60;99.90;-0.90;95597.00;;;;5053082;28;20423;-75
2021/12/25 03:47:39;;;;;;;4.23;3.10;;;-0.50;99.90;-0.90;95601.00;;;;5053286;28;21031;-75
2021/12/25 03:57:36;;;;;;;2.83;2.57;;;-0.40;99.90;-1.00;95598.00;;;;5005561;28;20435;-76
2021/12/25 04:00:00;;;;;;;2.10;1.70;;;-0.50;99.90;-1.50;95576.00;;;;5003650;28;20785;-74
2021/12/25 04:02:55;;;;;;;2.33;1.87;;;-0.50;99.90;-1.60;95583.00;;;;5019793;28;20422;-75
2021/12/25 04:05:47;;;;;;;2.67;1.77;;;-0.70;99.90;-1.60;95582.00;;;;5039515;28;20424;-75
2021/12/25 04:08:41;;;;;;;1.90;1.80;;;-0.70;99.90;-1.40;95594.00;;;;5043058;28;20805;-74
2021/12/25 04:11:34;;;;;;;2.03;1.93;;;-0.80;99.90;-1.00;95597.00;;;;5041878;28;20981;-74
2021/12/25 04:14:23;;;;;;;2.67;2.03;;;-0.70;99.90;-0.80;95605.00;;;;5041929;28;20443;-75
2021/12/25 04:17:11;;;;;;;3.03;2.77;;;-0.60;99.90;-0.70;95609.00;;;;5044582;28;20435;-74
2021/12/25 04:20:03;;;;;;;3.10;2.67;;;-0.50;99.90;-0.60;95607.00;;;;5044992;28;20479;-75
2021/12/25 04:22:57;;;;;;;4.03;3.50;;;-0.50;99.90;-0.60;95591.00;;;;5044433;28;20431;-74
2021/12/25 04:25:46;;;;;;;2.27;2.07;;;-0.40;99.90;-0.70;95587.00;;;;5036303;28;20942;-75
2021/12/25 04:28:40;;;;;;;3.20;2.13;;;-0.40;99.90;-0.60;95591.00;;;;5044707;28;20424;-74
2021/12/25 04:31:36;;;;;;;3.20;2.90;;;-0.20;99.90;-0.40;95586.00;;;;5043165;28;20466;-75
2021/12/25 05:01:39;;;;;;;2.70;2.10;;;-0.40;99.90;-1.10;95601.00;;;;5043941;28;20431;-75
2021/12/25 05:03:01;;;;;;;4.00;3.10;;;-0.20;99.90;-0.10;95618.00;;;;5040390;28;20803;-76
2021/12/25 05:05:51;;;;;;;3.57;3.27;;;-0.10;99.90;-0.30;95613.00;;;;5041725;28;20450;-75
2021/12/25 05:08:42;;;;;;;2.87;2.67;;;0.10;99.90;-0.30;95624.00;;;;5043897;28;20446;-76
2021/12/25 05:11:30;;;;;;;3.13;1.97;;;0.10;99.90;-0.70;95619.00;;;;5044130;28;20860;-75
2021/12/25 05:14:19;;;;;;;2.73;2.27;;;0.10;99.90;-0.60;95623.00;;;;5045154;28;20446;-74
2021/12/25 05:17:10;;;;;;;2.93;2.60;;;0.10;99.90;-0.40;95643.00;;;;5044110;28;20435;-75
2021/12/25 05:19:59;;;;;;;15.83;2.50;;;0.10;99.90;-0.70;95639.00;;;;5044138;28;20478;-75
2021/12/25 05:22:48;;;;;;;2.97;2.57;;;0.10;99.90;-0.70;95649.00;;;;5043610;28;20434;-73
2021/12/25 05:25:38;;;;;;;2.17;1.87;;;0.00;99.90;-0.50;95644.00;;;;5044744;28;20486;-74
2021/12/25 05:28:35;;;;;;;3.63;2.40;;;0.00;99.90;-0.50;95643.00;;;;5044124;28;20435;-75
2021/12/25 05:31:24;;;;;;;2.17;1.97;;;0.00;99.90;-0.30;95647.00;;;;5042863;28;20458;-74
2021/12/25 05:34:13;;;;;;;3.07;2.40;;;0.10;99.90;-0.20;95643.00;;;;5044283;28;20424;-74
2021/12/25 05:37:03;;;;;;;3.50;2.40;;;0.10;99.90;-0.10;95651.00;;;;5043214;28;20906;-74
2021/12/25 05:39:52;;;;;;;5.87;2.90;;;0.10;99.90;0.00;95629.00;;;;5044305;28;20470;-74
2021/12/25 05:42:42;;;;;;;5.90;3.27;;;0.10;99.90;0.00;95615.00;;;;5042263;28;20466;-74
2021/12/25 05:45:32;;;;;;;3.60;2.80;;;0.20;99.90;0.10;95623.00;;;;5043852;28;20416;-73
2021/12/25 05:48:21;;;;;;;3.20;2.90;;;0.30;99.90;0.00;95632.00;;;;5042948;28;20435;-74
2021/12/25 05:51:10;;;;;;;4.73;3.57;;;0.40;99.90;0.00;95639.00;;;;5044614;28;20456;-74
2021/12/25 05:53:59;;;;;;;3.90;3.17;;;0.40;99.90;0.20;95630.00;;;;5047216;28;20424;-74
2021/12/25 05:56:48;;;;;;;3.07;2.53;;;0.50;99.90;0.10;95630.00;;;;5047085;28;20439;-74
2021/12/25 05:59:38;;;;;;;2.97;2.73;;;0.50;99.90;-0.10;95615.00;;;;5046150;28;20469;-74
2021/12/25 06:02:27;;;;;;;4.67;3.20;;;0.40;99.90;0.00;95614.00;;;;5043221;28;20454;-74
2021/12/25 06:05:16;;;;;;;2.90;2.57;;;0.40;99.90;0.00;95609.00;;;;5043917;28;20430;-74
2021/12/25 06:08:06;;;;;;;3.37;3.07;;;0.40;99.90;-0.30;95613.00;;;;5038106;28;20435;-74
2021/12/25 06:10:56;;;;;;;1.67;1.37;;;0.40;99.90;-0.70;95614.00;;;;5033893;28;20989;-73
2021/12/25 06:13:56;;;;;;;2.43;2.20;;;0.20;99.90;-0.70;95614.00;;;;5047528;28;20426;-73
2021/12/25 06:16:47;;;;;;;3.60;2.40;;;0.10;99.90;-0.60;95598.00;;;;5046788;28;20443;-74
2021/12/25 06:19:36;;;;;;;3.40;1.90;;;0.10;99.90;-0.50;95598.00;;;;5047990;28;20544;-74
2021/12/25 06:22:24;;;;;;;3.13;2.67;;;0.00;99.90;-0.30;95601.00;;;;5046556;28;20447;-74
2021/12/25 06:25:14;;;;;;;3.20;2.80;;;0.10;99.90;-0.20;95597.00;;;;5047073;28;20430;-74
2021/12/25 06:28:03;;;;;;;2.30;2.10;;;0.10;99.90;-0.30;95598.00;;;;5041901;28;20863;-74
2021/12/25 06:30:51;;;;;;;3.67;3.23;;;0.10;99.90;-0.70;95596.00;;;;5031339;28;20469;-74
2021/12/25 06:33:42;;;;;;;3.53;3.10;;;0.00;99.90;-0.70;95595.00;;;;5047191;28;20439;-74
2021/12/25 06:36:31;;;;;;;2.30;2.20;;;0.00;99.90;-0.70;95592.00;;;;5047774;28;20550;-74
2021/12/25 06:39:20;;;;;;;3.80;2.70;;;-0.10;99.90;-0.80;95603.00;;;;5046523;28;20481;-74
2021/12/25 06:42:10;;;;;;;3.73;2.93;;;-0.10;99.90;-0.60;95603.00;;;;5046119;28;20536;-74
2021/12/25 06:44:59;;;;;;;5.93;3.53;;;-0.10;99.90;-0.70;95604.00;;;;5022298;28;20447;-74
2021/12/25 06:47:47;;;;;;;3.33;3.03;;;-0.10;99.90;-0.60;95606.00;;;;5047742;28;20497;-74
2021/12/25 06:50:38;;;;;;;2.87;2.63;;;0.00;99.90;-0.40;95623.00;;;;5046033;28;20803;-74
2021/12/25 06:53:26;;;;;;;3.63;2.83;;;0.00;99.90;-0.30;95616.00;;;;5046009;28;20430;-74
2021/12/25 06:56:16;;;;;;;3.63;2.93;;;0.10;99.90;-0.40;95608.00;;;;5044329;28;20428;-74
2021/12/25 06:59:05;;;;;;;3.70;3.40;;;0.00;99.90;-0.40;95615.00;;;;5045452;28;20420;-74
2021/12/25 07:01:54;;;;;;;5.60;3.03;;;0.10;99.90;-0.60;95611.00;;;;5046968;28;20451;-74
2021/12/25 07:04:43;;;;;;;4.27;3.50;;;0.00;99.90;-0.40;95608.00;;;;5038484;28;20937;-73
2021/12/25 07:07:34;;;;;;;4.87;3.10;;;0.10;99.90;-0.40;95623.00;;;;5033655;28;20933;-74
2021/12/25 07:10:23;;;;;;;2.97;2.33;;;1.50;99.90;-0.40;95622.00;;;;5036056;28;20443;-74
2021/12/25 07:13:17;;;;;;;5.30;3.40;;;0.20;99.90;-0.40;95615.00;;;;5047522;28;20939;-74
2021/12/25 07:16:05;;;;;;;3.97;2.93;;;0.20;99.90;-0.30;95615.00;;;;5046216;28;20435;-74
2021/12/25 07:18:55;;;;;;;7.10;3.87;;;0.30;99.90;-0.10;95629.00;;;;5045553;28;20431;-73
2021/12/25 07:21:45;;;;;;;6.60;3.77;;;0.30;99.90;0.00;95619.00;;;;5046210;28;20459;-74
2021/12/25 07:24:35;;;;;;;11.10;6.67;;;0.40;99.90;-0.40;95614.00;;;;5046164;28;20427;-74
2021/12/25 07:27:24;;;;;;;5.27;4.03;;;0.30;99.90;-0.50;95619.00;;;;5036477;28;20415;-74
2021/12/25 07:30:13;;;;;;;6.60;5.73;;;0.30;99.90;-0.30;95616.00;;;;5045584;28;20435;-73
2021/12/25 07:33:02;;;;;;;8.07;4.43;;;0.30;99.90;-0.40;95618.00;;;;5046326;28;20834;-74
2021/12/25 07:35:51;;;;;;;6.60;4.93;;;0.30;99.90;0.00;95619.00;;;;5045461;28;20423;-74
2021/12/25 07:38:40;;;;;;;3.07;2.80;;;0.40;99.90;-0.10;95632.00;;;;5046025;28;20430;-74
2021/12/25 07:41:31;;;;;;;3.17;2.93;;;0.40;99.90;-0.10;95625.00;;;;5045830;28;20485;-74
2021/12/25 07:44:20;;;;;;;1.90;1.77;;;0.40;99.90;-0.10;95622.00;;;;5045748;28;20433;-74
2021/12/25 07:47:11;;;;;;;4.60;2.47;;;0.50;99.90;0.00;95626.00;;;;5045468;28;20972;-74
2021/12/25 07:50:00;;;;;;;3.07;2.70;;;0.50;99.90;0.30;95633.00;;;;5045222;28;20447;-74
2021/12/25 07:52:49;;;;;;;8.23;7.47;;;0.50;99.90;0.30;95628.00;;;;5043924;28;20427;-74
2021/12/25 07:55:39;;;;;;;4.70;3.33;;;0.60;99.90;0.10;95640.00;;;;5045954;28;20792;-75
2021/12/25 07:58:29;;;;;;;7.07;5.13;;;0.60;99.90;-0.20;95653.00;;;;5040698;28;20784;-74
2021/12/25 08:01:19;;;;;;;3.60;3.20;;;0.60;99.90;0.00;95649.00;;;;5044428;28;20485;-74
2021/12/25 08:04:09;;;;;;;7.20;6.47;;;0.60;99.90;0.30;95644.00;;;;5042323;28;20420;-74
2021/12/25 08:06:58;;;;;;;7.57;6.87;;;0.70;99.90;0.50;95646.00;;;;5038875;28;20481;-75
2021/12/25 08:09:47;;;;;;;4.97;3.67;;;0.80;99.90;0.30;95636.00;;;;5044338;28;20432;-75
2021/12/25 08:12:36;;;;;;;4.40;2.60;;;0.80;99.90;0.60;95645.00;;;;5045437;28;20442;-75
2021/12/25 08:15:31;;;;;;;114.13;50.13;;;0.90;99.90;0.50;95643.00;;;;5045016;28;21055;-74
2021/12/25 08:18:20;;;;;;;81.40;36.60;;;0.90;99.90;0.70;95651.00;;;;5047051;28;20424;-75
2021/12/25 08:21:09;;;;;;;26.27;12.13;;;1.00;99.90;0.80;95648.00;;;;5037295;28;21025;-77
2021/12/25 08:23:58;;;;;;;8.53;5.60;;;1.10;99.90;0.70;95638.00;;;;5043903;28;20777;-77
2021/12/25 08:26:49;;;;;;;3.73;2.83;;;1.10;99.90;0.50;95648.00;;;;5042901;28;20462;-76
2021/12/25 08:29:38;;;;;;;5.00;4.17;;;1.10;99.90;0.80;95637.00;;;;5044211;28;20473;-76
2021/12/25 08:32:29;;;;;;;6.10;5.47;;;1.10;99.90;1.00;95634.00;;;;5038164;28;20950;-76
2021/12/25 08:35:19;;;;;;;5.47;4.97;;;1.30;99.90;1.30;95643.00;;;;5042481;28;20448;-77
2021/12/25 08:38:11;;;;;;;5.83;5.30;;;1.40;99.90;1.60;95645.00;;;;5042087;28;20739;-77
2021/12/25 08:41:00;;;;;;;5.97;5.33;;;1.50;99.90;1.70;95647.00;;;;5039961;28;21025;-77
2021/12/25 08:43:50;;;;;;;7.37;4.93;;;1.80;99.90;1.50;95638.00;;;;5044582;28;20439;-77
2021/12/25 08:46:54;;;;;;;5.27;3.43;;;1.80;99.90;1.50;95644.00;;;;5035836;28;20950;-78
2021/12/25 08:49:44;;;;;;;4.70;3.90;;;1.90;99.90;1.80;95643.00;;;;5044946;28;20419;-77
2021/12/25 08:52:33;;;;;;;4.00;3.20;;;1.90;99.90;1.90;95647.00;;;;5044806;28;20447;-78
2021/12/25 08:55:22;;;;;;;9.43;8.20;;;2.10;99.90;2.10;95645.00;;;;5041599;28;20952;-78
2021/12/25 08:58:11;;;;;;;9.60;8.57;;;2.20;99.90;2.50;95640.00;;;;5041798;28;20431;-79
2021/12/25 09:01:02;;;;;;;15.87;9.63;;;2.30;99.90;2.40;95628.00;;;;5041916;28;20470;-78
2021/12/25 09:03:51;;;;;;;55.27;29.33;;;2.50;99.90;2.80;95647.00;;;;5038920;28;20782;-78
2021/12/25 09:06:42;;;;;;;23.23;14.27;;;2.60;99.90;3.00;95660.00;;;;5036710;28;20435;-78
2021/12/25 09:09:32;;;;;;;20.97;13.23;;;2.80;99.90;3.30;95650.00;;;;5036907;28;20431;-78
2021/12/25 09:12:22;;;;;;;7.47;6.07;;;3.00;99.90;3.40;95659.00;;;;5045551;28;20461;-79
2021/12/25 09:15:14;;;;;;;7.57;5.93;;;3.10;99.90;3.70;95648.00;;;;5044842;28;20426;-76
2021/12/25 09:18:04;;;;;;;7.57;5.83;;;3.40;99.90;4.10;95660.00;;;;5044744;28;20435;-76
2021/12/25 09:20:53;;;;;;;5.73;5.13;;;3.60;99.90;4.40;95660.00;;;;5042483;28;20478;-74
2021/12/25 09:23:44;;;;;;;7.83;5.63;;;3.80;99.90;4.60;95659.00;;;;5036129;28;20434;-79
2021/12/25 09:26:33;;;;;;;6.60;4.83;;;4.10;99.90;4.80;95664.00;;;;5050707;28;20824;-78
2021/12/25 09:29:23;;;;;;;9.63;6.07;;;4.30;99.90;4.90;95663.00;;;;5048427;28;20430;-78
2021/12/25 09:32:12;;;;;;;11.63;10.00;;;4.50;99.90;4.40;95653.00;;;;5026255;28;20254;-76
2021/12/25 09:35:01;;;;;;;8.73;5.77;;;4.60;99.90;4.10;95649.00;;;;5034415;28;20204;-76
2021/12/25 09:37:50;;;;;;;7.63;4.40;;;4.60;99.90;4.40;95638.00;;;;5030336;28;20250;-77
2021/12/25 09:40:41;;;;;;;10.00;7.77;;;4.60;99.90;4.40;95636.00;;;;5030187;28;20210;-76
2021/12/25 09:43:29;;;;;;;15.07;9.10;;;4.60;99.90;4.90;95627.00;;;;5031063;28;20204;-75
2021/12/25 09:46:21;;;;;;;12.50;8.03;;;4.70;99.90;5.10;95635.00;;;;5040056;28;20664;-77
2021/12/25 09:49:10;;;;;;;12.63;9.10;;;4.80;99.90;4.70;95639.00;;;;5045076;28;20766;-77
2021/12/25 09:52:01;;;;;;;9.47;6.10;;;4.90;99.90;4.30;95622.00;;;;5045300;28;20220;-78
2021/12/25 09:54:50;;;;;;;10.23;6.20;;;4.80;99.90;4.80;95618.00;;;;5048275;28;20192;-76
2021/12/25 09:57:41;;;;;;;8.77;7.30;;;4.80;99.90;5.00;95615.00;;;;5032024;28;20193;-77
2021/12/25 10:00:30;;;;;;;9.93;6.63;;;4.90;99.90;5.30;95616.00;;;;5049448;28;20201;-80
2021/12/25 10:03:45;;;;;;;5.87;5.13;;;5.10;99.90;5.40;95606.00;;;;5049157;28;20189;-78
2021/12/25 10:06:37;;;;;;;20.67;5.33;;;5.20;99.90;5.70;95601.00;;;;5050697;28;20549;-77
2021/12/25 10:09:27;;;;;;;6.27;4.30;;;5.40;99.90;5.30;95597.00;;;;5050850;28;20671;-77
2021/12/25 10:12:15;;;;;;;15.37;6.63;;;5.50;99.90;5.50;95598.00;;;;5051041;28;20228;-77
2021/12/25 10:15:11;;;;;;;13.70;9.63;;;5.50;99.90;5.80;95599.00;;;;5049805;28;20205;-79
2021/12/25 10:18:01;;;;;;;14.03;8.17;;;5.70;99.90;5.50;95589.00;;;;5054472;28;20189;-79
2021/12/25 10:20:50;;;;;;;16.03;11.10;;;5.70;99.90;5.20;95589.00;;;;5049219;28;20232;-79
2021/12/25 10:23:39;;;;;;;10.20;7.23;;;5.70;99.90;5.50;95584.00;;;;5029305;28;20574;-79
2021/12/25 10:26:28;;;;;;;99.33;48.03;;;5.70;99.90;5.70;95587.00;;;;5047163;28;20201;-79
2021/12/25 10:29:21;;;;;;;53.47;32.90;;;6.00;99.90;5.10;95590.00;;;;5050535;28;20197;-79
2021/12/25 10:32:24;;;;;;;10.57;8.23;;;6.30;99.90;5.00;95582.00;;;;5049861;28;20723;-79
2021/12/25 10:35:17;;;;;;;8.83;5.87;;;6.00;99.90;5.40;95585.00;;;;5050640;28;20204;-78
2021/12/25 10:38:12;;;;;;;39.20;26.80;;;6.10;99.90;5.40;95577.00;;;;5049131;28;20204;-75
2021/12/25 10:41:19;;;;;;;17.13;9.70;;;6.00;99.90;6.00;95575.00;;;;5043383;28;20715;-77
2021/12/25 10:44:16;;;;;;;28.47;20.07;;;6.10;99.90;6.30;95584.00;;;;5044434;28;20211;-77
2021/12/25 10:47:08;;;;;;;9.63;6.53;;;6.30;99.90;6.80;95590.00;;;;5046002;28;20676;-76
2021/12/25 10:50:02;;;;;;;5.60;4.37;;;6.40;99.90;7.10;95589.00;;;;5047475;28;20200;-77
2021/12/25 10:52:51;;;;;;;7.30;5.47;;;6.70;99.90;7.40;95592.00;;;;5048667;28;20230;-76
2021/12/25 10:55:39;;;;;;;7.70;4.80;;;6.90;99.90;7.40;95577.00;;;;5047619;28;20224;-77
2021/12/25 10:58:28;;;;;;;8.20;5.43;;;7.20;99.90;7.30;95577.00;;;;5047186;28;20209;-77
2021/12/25 11:01:18;;;;;;;7.00;5.00;;;7.40;99.90;7.00;95575.00;;;;5047235;28;20213;-76
2021/12/25 11:04:29;;;;;;;8.40;4.77;;;7.50;99.90;7.10;95585.00;;;;5040130;28;20189;-77
2021/12/25 11:07:19;;;;;;;9.90;4.90;;;7.50;99.90;7.50;95574.00;;;;5046575;28;20208;-77
2021/12/25 11:10:12;;;;;;;7.47;4.63;;;7.60;99.90;7.80;95591.00;;;;5049670;28;20711;-77
2021/12/25 11:13:01;;;;;;;31.80;16.43;;;7.60;99.90;7.60;95591.00;;;;5047159;28;20197;-76
2021/12/25 11:15:55;;;;;;;34.03;15.53;;;7.70;99.90;7.00;95587.00;;;;5046993;28;20216;-77
2021/12/25 11:19:04;;;;;;;18.43;9.27;;;7.60;99.90;6.80;95564.00;;;;5038171;28;20211;-76
2021/12/25 11:22:00;;;;;;;11.60;7.20;;;7.30;99.90;7.20;95569.00;;;;5047613;28;20250;-75
2021/12/25 11:24:51;;;;;;;7.67;5.67;;;7.20;99.90;7.60;95560.00;;;;5046361;28;20189;-75
2021/12/25 11:27:40;;;;;;;4.93;4.33;;;7.20;99.90;7.70;95560.00;;;;5046312;28;20197;-75
2021/12/25 11:30:32;;;;;;;7.00;3.93;;;7.30;99.90;7.80;95555.00;;;;5045391;28;20201;-76
2021/12/25 11:33:21;;;;;;;6.00;3.83;;;7.40;99.90;8.00;95545.00;;;;5043991;28;20271;-76
2021/12/25 11:36:10;;;;;;;5.40;4.03;;;7.50;99.90;8.20;95556.00;;;;5042408;28;20674;-76
2021/12/25 11:39:00;;;;;;;4.43;3.37;;;7.70;99.90;8.40;95550.00;;;;5038362;28;20200;-78
2021/12/25 11:41:54;;;;;;;9.07;4.43;;;7.90;99.90;8.50;95547.00;;;;5043105;28;20596;-77
2021/12/25 11:44:49;;;;;;;7.27;4.53;;;8.10;99.90;8.70;95543.00;;;;5041133;28;20201;-76
2021/12/25 11:47:41;;;;;;;10.57;4.50;;;8.20;99.90;8.80;95549.00;;;;5041680;28;20209;-76
2021/12/25 11:50:41;;;;;;;7.07;4.10;;;8.40;99.90;8.80;95542.00;;;;5048126;28;20197;-77
2021/12/25 11:53:46;;;;;;;8.50;4.30;;;8.50;99.90;8.90;95542.00;;;;5046195;28;20197;-76
2021/12/25 11:57:10;;;;;;;6.20;3.83;;;8.60;99.90;9.00;95543.00;;;;5043009;28;20663;-79
2021/12/25 12:00:00;;;;;;;9.57;4.27;;;8.70;99.90;9.00;95536.00;;;;5038502;28;20211;-75
2021/12/25 12:02:49;;;;;;;11.03;4.67;;;8.80;99.90;9.10;95538.00;;;;5044335;28;20244;-74
2021/12/25 12:05:38;;;;;;;4.73;3.27;;;8.80;99.90;9.10;95535.00;;;;5045168;28;20207;-75
2021/12/25 12:08:27;;;;;;;6.43;3.43;;;8.90;99.90;9.40;95542.00;;;;5046298;28;20197;-77
2021/12/25 12:11:22;;;;;;;6.00;3.73;;;9.00;99.90;9.30;95528.00;;;;5045900;28;20227;-74
2021/12/25 12:14:19;;;;;;;5.57;4.33;;;9.10;99.90;9.10;95524.00;;;;5045868;28;20211;-75
2021/12/25 12:17:26;;;;;;;5.93;4.47;;;9.10;99.90;9.40;95514.00;;;;5046713;28;20200;-75
2021/12/25 12:20:39;;;;;;;4.23;3.20;;;9.00;99.80;9.60;95524.00;;;;5036629;28;20208;-75
2021/12/25 12:23:37;;;;;;;15.93;4.53;;;9.10;99.90;9.40;95522.00;;;;5046573;28;20231;-75
2021/12/25 12:26:51;;;;;;;28.00;5.63;;;9.20;99.30;9.40;95516.00;;;;5043773;28;20196;-75
2021/12/25 12:29:51;;;;;;;8.50;3.97;;;9.10;98.90;9.30;95498.00;;;;5032681;28;20200;-74
2021/12/25 12:32:43;;;;;;;7.67;3.53;;;9.10;98.70;9.00;95508.00;;;;5046098;28;20709;-72
2021/12/25 12:35:35;;;;;;;9.33;5.87;;;9.10;98.30;8.90;95507.00;;;;5044125;28;20212;-73
2021/12/25 12:38:43;;;;;;;6.27;4.57;;;9.10;98.00;9.00;95512.00;;;;5043685;28;20221;-74
2021/12/25 12:41:38;;;;;;;7.03;4.43;;;9.10;98.10;9.30;95510.00;;;;5044698;28;20234;-74
2021/12/25 12:44:30;;;;;;;26.23;6.10;;;9.10;98.20;9.50;95513.00;;;;5030810;28;20209;-73
2021/12/25 12:47:22;;;;;;;17.10;4.17;;;9.10;98.10;9.70;95512.00;;;;5039597;28;20664;-74
2021/12/25 12:50:12;;;;;;;22.23;5.33;;;9.20;97.70;9.80;95510.00;;;;5039961;28;20665;-73
2021/12/25 12:53:06;;;;;;;5.40;3.90;;;9.30;97.90;9.50;95517.00;;;;5042916;28;20201;-75
2021/12/25 12:56:04;;;;;;;6.63;3.87;;;9.40;96.70;9.10;95501.00;;;;5034313;28;20204;-75
2021/12/25 12:58:56;;;;;;;16.30;6.47;;;9.40;96.00;8.50;95485.00;;;;5013776;28;20212;-77
2021/12/25 13:01:45;;;;;;;16.50;5.57;;;9.10;96.10;9.00;95480.00;;;;5023743;28;20232;-77
2021/12/25 13:04:45;;;;;;;12.73;4.80;;;9.00;96.30;9.00;95493.00;;;;5051854;28;20201;-76
2021/12/25 13:07:36;;;;;;;6.27;4.43;;;9.00;96.50;8.70;95491.00;;;;5033236;28;20214;-73
2021/12/25 13:10:37;;;;;;;4.80;4.23;;;9.00;96.20;8.60;95480.00;;;;5043553;28;20204;-75
2021/12/25 13:13:35;;;;;;;7.67;4.80;;;8.90;96.30;8.80;95490.00;;;;5035728;28;20208;-76
2021/12/25 13:16:33;;;;;;;6.20;4.07;;;8.90;96.40;9.40;95492.00;;;;5045170;28;20196;-76
2021/12/25 13:19:25;;;;;;;15.80;5.57;;;9.00;96.90;9.80;95488.00;;;;5045499;28;20218;-74
2021/12/25 13:22:15;;;;;;;9.53;6.07;;;9.20;96.80;9.00;95474.00;;;;5047049;28;20220;-76
2021/12/25 13:25:09;;;;;;;14.50;8.90;;;9.30;95.80;8.70;95488.00;;;;5049368;28;20201;-75
2021/12/25 13:28:00;;;;;;;8.07;5.00;;;9.80;95.70;9.10;95482.00;;;;5035524;28;20231;-76
2021/12/25 13:31:18;;;;;;;9.40;4.77;;;9.20;95.70;9.40;95495.00;;;;5042930;28;20220;-74
2021/12/25 13:34:12;;;;;;;6.53;4.77;;;9.30;95.40;9.40;95496.00;;;;5047253;28;20209;-75